createdAt,value
2023-06-30T00:01:50.607Z,17.08
2023-06-30T00:04:19.313Z,17.04
2023-06-30T00:06:51.042Z,16.99
2023-06-30T00:09:20.596Z,17.01
2023-06-30T00:11:51.737Z,16.95
2023-06-30T00:14:20.471Z,16.88
2023-06-30T00:16:48.530Z,16.87
2023-06-30T00:19:17.634Z,16.74
2023-06-30T00:21:46.244Z,16.62
2023-06-30T00:24:14.720Z,16.54
2023-06-30T00:26:43.706Z,16.44
2023-06-30T00:29:13.112Z,16.41
2023-06-30T00:31:41.284Z,16.30
2023-06-30T00:34:09.804Z,16.27
2023-06-30T00:36:39.548Z,16.19
2023-06-30T00:39:07.998Z,16.23
2023-06-30T00:41:36.406Z,16.18
2023-06-30T00:44:04.758Z,16.20
2023-06-30T00:46:34.706Z,16.18
2023-06-30T00:49:04.080Z,16.17
2023-06-30T00:51:32.457Z,16.14
2023-06-30T00:54:01.172Z,16.14
2023-06-30T00:56:29.786Z,16.09
2023-06-30T00:58:58.375Z,16.07
2023-06-30T01:01:36.688Z,16.09
2023-06-30T01:04:13.666Z,16.08
2023-06-30T01:06:50.040Z,16.03
2023-06-30T01:09:24.129Z,16.06
2023-06-30T01:11:53.755Z,15.98
2023-06-30T01:14:24.685Z,15.95
2023-06-30T01:16:54.447Z,15.91
2023-06-30T01:19:29.369Z,15.95
2023-06-30T01:22:05.559Z,15.87
2023-06-30T01:24:36.307Z,15.80
2023-06-30T01:27:06.061Z,15.83
2023-06-30T01:29:34.607Z,15.80
2023-06-30T01:32:03.258Z,15.77
2023-06-30T01:34:35.057Z,15.80
2023-06-30T01:37:03.508Z,15.77
2023-06-30T01:39:31.587Z,15.84
2023-06-30T01:42:02.119Z,15.81
2023-06-30T01:44:30.529Z,15.80
2023-06-30T01:46:58.997Z,15.72
2023-06-30T01:49:29.205Z,15.77
2023-06-30T01:51:58.473Z,15.69
2023-06-30T01:54:26.474Z,15.71
2023-06-30T01:56:55.365Z,15.62
2023-06-30T01:59:23.317Z,15.50
2023-06-30T02:01:51.890Z,15.61
2023-06-30T02:04:20.274Z,15.60
2023-06-30T02:06:48.862Z,15.60
2023-06-30T02:09:18.154Z,15.65
2023-06-30T02:11:46.352Z,15.64
2023-06-30T02:14:17.628Z,15.66
2023-06-30T02:16:46.845Z,15.62
2023-06-30T02:19:14.840Z,15.55
2023-06-30T02:21:43.543Z,15.64
2023-06-30T02:24:13.461Z,15.60
2023-06-30T02:26:42.953Z,15.54
2023-06-30T02:29:14.607Z,15.45
2023-06-30T02:31:42.641Z,15.46
2023-06-30T02:34:10.632Z,15.40
2023-06-30T02:36:39.124Z,15.40
2023-06-30T02:39:07.126Z,15.38
2023-06-30T02:41:35.612Z,15.34
2023-06-30T02:44:04.982Z,15.36
2023-06-30T02:46:33.117Z,15.37
2023-06-30T02:49:02.112Z,15.42
2023-06-30T02:51:30.095Z,15.37
2023-06-30T02:53:58.073Z,15.34
2023-06-30T02:56:27.033Z,15.33
2023-06-30T02:58:55.652Z,15.23
2023-06-30T03:01:28.320Z,15.20
2023-06-30T03:03:58.732Z,15.22
2023-06-30T03:06:30.910Z,15.20
2023-06-30T03:08:59.878Z,15.12
2023-06-30T03:11:30.799Z,15.23
2023-06-30T03:14:00.298Z,15.18
2023-06-30T03:16:37.733Z,15.14
2023-06-30T03:19:06.852Z,15.11
2023-06-30T03:21:34.941Z,15.15
2023-06-30T03:24:03.958Z,15.08
2023-06-30T03:26:32.552Z,15.16
2023-06-30T03:29:02.316Z,15.20
2023-06-30T03:31:32.525Z,15.08
2023-06-30T03:34:02.049Z,14.99
2023-06-30T03:36:30.186Z,14.85
2023-06-30T03:38:58.673Z,14.78
2023-06-30T03:41:28.113Z,14.67
2023-06-30T03:43:56.663Z,14.61
2023-06-30T03:46:25.216Z,14.47
2023-06-30T03:48:53.928Z,14.34
2023-06-30T03:51:23.329Z,14.30
2023-06-30T03:53:54.334Z,14.25
2023-06-30T03:56:23.693Z,14.22
2023-06-30T03:58:51.676Z,14.22
2023-06-30T04:01:19.668Z,14.12
2023-06-30T04:03:48.437Z,14.06
2023-06-30T04:06:16.888Z,14.06
2023-06-30T04:08:46.945Z,14.03
2023-06-30T04:11:15.998Z,14.05
2023-06-30T04:13:43.925Z,13.96
2023-06-30T04:16:12.376Z,13.96
2023-06-30T04:18:40.830Z,13.99
2023-06-30T04:21:08.760Z,14.01
2023-06-30T04:23:37.176Z,14.01
2023-06-30T04:26:06.658Z,14.02
2023-06-30T04:28:36.179Z,14.02
2023-06-30T04:31:06.518Z,13.95
2023-06-30T04:33:35.400Z,14.00
2023-06-30T04:36:03.385Z,14.02
2023-06-30T04:38:32.567Z,13.99
2023-06-30T04:41:00.571Z,14.00
2023-06-30T04:43:30.657Z,13.96
2023-06-30T04:45:59.209Z,13.95
2023-06-30T04:48:28.301Z,14.00
2023-06-30T04:50:56.330Z,14.06
2023-06-30T04:53:25.162Z,14.07
2023-06-30T04:55:53.108Z,14.12
2023-06-30T04:58:21.604Z,14.02
2023-06-30T05:00:51.662Z,14.03
2023-06-30T05:03:20.505Z,14.13
2023-06-30T05:05:48.561Z,14.15
2023-06-30T05:08:17.110Z,14.14
2023-06-30T05:10:45.067Z,14.11
2023-06-30T05:13:13.226Z,14.14
2023-06-30T05:15:41.856Z,14.19
2023-06-30T05:18:11.514Z,14.13
2023-06-30T05:20:42.024Z,14.05
2023-06-30T05:23:09.971Z,14.10
2023-06-30T05:25:38.598Z,14.09
2023-06-30T05:28:06.712Z,14.09
2023-06-30T05:30:34.679Z,14.06
2023-06-30T05:33:03.084Z,14.13
2023-06-30T05:35:33.959Z,14.03
2023-06-30T05:38:02.797Z,14.04
2023-06-30T05:40:31.261Z,14.06
2023-06-30T05:42:59.315Z,14.13
2023-06-30T05:45:27.392Z,14.14
2023-06-30T05:47:56.416Z,14.11
2023-06-30T05:50:26.944Z,14.18
2023-06-30T05:52:56.947Z,14.13
2023-06-30T05:55:24.779Z,14.13
2023-06-30T05:57:53.085Z,14.15
2023-06-30T06:00:22.380Z,14.10
2023-06-30T06:02:50.433Z,14.03
2023-06-30T06:05:20.638Z,14.11
2023-06-30T06:07:50.546Z,14.16
2023-06-30T06:10:19.731Z,14.10
2023-06-30T06:12:48.257Z,14.11
2023-06-30T06:15:16.745Z,14.10
2023-06-30T06:17:44.824Z,14.12
2023-06-30T06:20:13.056Z,14.11
2023-06-30T06:22:41.737Z,14.18
2023-06-30T06:25:09.983Z,14.25
2023-06-30T06:27:39.979Z,14.26
2023-06-30T06:30:09.290Z,14.41
2023-06-30T06:32:37.301Z,14.50
2023-06-30T06:35:06.297Z,14.76
2023-06-30T06:37:34.837Z,15.03
2023-06-30T06:40:02.933Z,15.07
2023-06-30T06:42:30.907Z,14.98
2023-06-30T06:45:01.204Z,14.94
2023-06-30T06:48:07.780Z,14.90
2023-06-30T06:50:38.329Z,15.12
2023-06-30T06:53:06.306Z,14.83
2023-06-30T06:55:35.446Z,14.75
2023-06-30T06:58:04.524Z,14.58
2023-06-30T07:00:33.964Z,14.51
2023-06-30T07:03:02.119Z,14.71
2023-06-30T07:05:30.775Z,14.82
2023-06-30T07:07:58.828Z,14.98
2023-06-30T07:10:26.913Z,14.94
2023-06-30T07:12:55.652Z,14.97
2023-06-30T07:15:23.602Z,15.00
2023-06-30T07:17:53.326Z,15.26
2023-06-30T07:20:21.601Z,15.32
2023-06-30T07:22:49.719Z,15.31
2023-06-30T07:25:17.695Z,15.57
2023-06-30T07:27:54.265Z,16.06
2023-06-30T07:30:23.472Z,16.06
2023-06-30T07:32:53.282Z,16.32
2023-06-30T07:35:23.369Z,16.56
2023-06-30T07:37:52.070Z,16.59
2023-06-30T07:40:23.787Z,16.63
2023-06-30T07:42:54.907Z,16.88
2023-06-30T07:45:23.296Z,16.68
2023-06-30T07:47:53.421Z,16.46
2023-06-30T07:50:22.619Z,16.69
2023-06-30T07:52:51.422Z,16.88
2023-06-30T07:55:20.238Z,16.94
2023-06-30T07:57:50.553Z,16.97
2023-06-30T08:00:19.598Z,17.18
2023-06-30T08:02:52.081Z,17.32
2023-06-30T08:05:21.885Z,17.59
2023-06-30T08:07:51.652Z,17.34
2023-06-30T08:10:21.138Z,17.50
2023-06-30T08:12:49.115Z,17.41
2023-06-30T08:15:17.652Z,17.06
2023-06-30T08:17:52.103Z,16.88
2023-06-30T08:20:27.577Z,16.71
2023-06-30T08:22:56.753Z,16.63
2023-06-30T08:25:25.525Z,16.84
2023-06-30T08:27:54.579Z,16.57
2023-06-30T08:30:25.232Z,16.55
2023-06-30T08:32:56.521Z,16.85
2023-06-30T08:35:27.664Z,16.77
2023-06-30T08:37:55.650Z,16.83
2023-06-30T08:40:28.178Z,17.28
2023-06-30T08:42:58.622Z,17.25
2023-06-30T08:45:29.587Z,17.46
2023-06-30T08:48:01.516Z,17.63
2023-06-30T08:50:31.925Z,17.24
2023-06-30T08:53:00.593Z,17.16
2023-06-30T08:55:28.850Z,17.55
2023-06-30T08:58:02.339Z,17.67
2023-06-30T09:00:38.691Z,18.21
2023-06-30T09:03:07.887Z,18.59
2023-06-30T09:05:38.973Z,19.17
2023-06-30T09:08:16.167Z,18.79
2023-06-30T09:10:45.289Z,18.25
2023-06-30T09:13:13.393Z,18.81
2023-06-30T09:15:43.216Z,18.89
2023-06-30T09:18:11.771Z,18.70
2023-06-30T09:20:43.103Z,18.56
2023-06-30T09:23:11.390Z,18.64
2023-06-30T09:25:41.010Z,18.83
2023-06-30T09:28:16.414Z,18.23
2023-06-30T09:30:48.651Z,18.38
2023-06-30T09:33:18.654Z,18.04
2023-06-30T09:35:49.737Z,17.64
2023-06-30T09:38:19.826Z,17.85
2023-06-30T09:40:48.548Z,17.92
2023-06-30T09:43:19.832Z,18.33
2023-06-30T09:45:55.178Z,18.47
2023-06-30T09:48:23.991Z,18.31
2023-06-30T09:50:55.612Z,17.93
2023-06-30T09:53:24.625Z,17.82
2023-06-30T09:55:54.070Z,18.10
2023-06-30T09:58:23.629Z,18.02
2023-06-30T10:00:53.866Z,18.39
2023-06-30T10:03:21.862Z,18.55
2023-06-30T10:05:50.729Z,18.57
2023-06-30T10:08:23.675Z,18.42
2023-06-30T10:10:56.078Z,18.77
2023-06-30T10:13:25.255Z,18.79
2023-06-30T10:15:53.812Z,19.37
2023-06-30T10:18:23.112Z,19.70
2023-06-30T10:20:51.573Z,19.06
2023-06-30T10:23:24.989Z,18.75
2023-06-30T10:25:54.743Z,18.72
2023-06-30T10:28:23.103Z,18.94
2023-06-30T10:30:56.438Z,18.74
2023-06-30T10:33:24.599Z,18.25
2023-06-30T10:35:53.761Z,18.66
2023-06-30T10:38:24.546Z,19.55
2023-06-30T10:41:12.605Z,19.48
2023-06-30T10:44:09.968Z,19.93
2023-06-30T10:46:55.169Z,18.81
2023-06-30T10:49:31.167Z,18.82
2023-06-30T10:52:02.504Z,18.70
2023-06-30T10:54:40.358Z,18.81
2023-06-30T10:57:11.920Z,18.93
2023-06-30T10:59:42.151Z,18.97
2023-06-30T11:02:16.159Z,19.53
2023-06-30T11:04:45.393Z,19.62
2023-06-30T11:07:19.594Z,19.96
2023-06-30T11:10:06.187Z,19.53
2023-06-30T11:12:57.099Z,19.22
2023-06-30T11:15:36.996Z,19.45
2023-06-30T11:18:08.842Z,19.54
2023-06-30T11:20:37.851Z,19.82
2023-06-30T11:23:07.110Z,20.50
2023-06-30T11:25:37.249Z,20.98
2023-06-30T11:28:06.895Z,20.16
2023-06-30T11:30:38.483Z,19.31
2023-06-30T11:33:07.906Z,19.11
2023-06-30T11:35:38.077Z,19.95
2023-06-30T11:38:09.617Z,20.47
2023-06-30T11:40:46.386Z,20.55
2023-06-30T11:43:17.124Z,20.49
2023-06-30T11:45:45.632Z,20.64
2023-06-30T11:48:14.537Z,19.96
2023-06-30T11:50:43.172Z,20.20
2023-06-30T11:53:11.370Z,20.34
2023-06-30T11:55:45.158Z,20.39
2023-06-30T11:58:13.390Z,20.59
2023-06-30T12:00:45.355Z,20.66
2023-06-30T12:03:18.090Z,20.79
2023-06-30T12:05:57.562Z,20.54
2023-06-30T12:08:28.017Z,21.13
2023-06-30T12:10:58.465Z,20.29
2023-06-30T12:13:29.504Z,20.56
2023-06-30T12:15:59.162Z,19.96
2023-06-30T12:18:37.742Z,20.01
2023-06-30T12:21:11.302Z,19.84
2023-06-30T12:23:42.371Z,19.94
2023-06-30T12:26:14.507Z,20.46
2023-06-30T12:28:44.002Z,20.56
2023-06-30T12:31:12.951Z,21.77
2023-06-30T12:33:41.400Z,21.81
2023-06-30T12:36:10.438Z,22.08
2023-06-30T12:38:38.499Z,23.58
2023-06-30T12:41:08.319Z,22.17
2023-06-30T12:43:37.648Z,22.49
2023-06-30T12:46:06.154Z,21.86
2023-06-30T12:48:34.727Z,21.30
2023-06-30T12:51:03.547Z,22.01
2023-06-30T12:53:31.976Z,21.94
2023-06-30T12:56:00.660Z,21.63
2023-06-30T12:58:28.753Z,22.08
2023-06-30T13:01:01.477Z,23.23
2023-06-30T13:03:30.638Z,23.07
2023-06-30T13:05:59.181Z,22.85
2023-06-30T13:08:28.274Z,22.05
2023-06-30T13:10:57.124Z,22.94
2023-06-30T13:13:25.207Z,23.77
2023-06-30T13:15:54.582Z,23.85
2023-06-30T13:18:23.961Z,24.75
2023-06-30T13:20:52.467Z,23.18
2023-06-30T13:23:32.202Z,21.81
2023-06-30T13:26:07.299Z,21.35
2023-06-30T13:28:36.640Z,22.12
2023-06-30T13:31:06.929Z,21.93
2023-06-30T13:33:38.182Z,22.12
2023-06-30T13:36:06.807Z,22.22
2023-06-30T13:38:35.220Z,21.86
2023-06-30T13:41:03.265Z,21.80
2023-06-30T13:43:31.578Z,23.92
2023-06-30T13:46:01.997Z,25.97
2023-06-30T13:48:30.164Z,25.62
2023-06-30T13:51:00.070Z,27.42
2023-06-30T13:53:28.988Z,26.85
2023-06-30T13:55:59.508Z,24.52
2023-06-30T13:58:27.999Z,23.31
2023-06-30T14:00:56.442Z,23.25
2023-06-30T14:03:24.530Z,22.49
2023-06-30T14:05:53.502Z,21.58
2023-06-30T14:08:23.678Z,21.91
2023-06-30T14:10:51.389Z,22.13
2023-06-30T14:13:20.064Z,23.99
2023-06-30T14:15:48.718Z,22.42
2023-06-30T14:18:16.894Z,22.55
2023-06-30T14:20:48.579Z,22.00
2023-06-30T14:23:16.771Z,21.53
2023-06-30T14:25:46.719Z,21.54
2023-06-30T14:28:16.178Z,21.94
2023-06-30T14:30:44.370Z,21.84
2023-06-30T14:33:12.904Z,21.96
2023-06-30T14:35:41.416Z,23.43
2023-06-30T14:38:10.286Z,22.55
2023-06-30T14:40:38.789Z,22.74
2023-06-30T14:43:09.103Z,22.98
2023-06-30T14:45:37.165Z,22.38
2023-06-30T14:48:05.454Z,22.03
2023-06-30T14:50:34.491Z,22.41
2023-06-30T14:53:02.430Z,22.34
2023-06-30T14:55:30.925Z,24.52
2023-06-30T14:57:59.471Z,23.77
2023-06-30T15:00:28.850Z,23.10
2023-06-30T15:02:57.460Z,22.51
2023-06-30T15:05:25.956Z,22.09
2023-06-30T15:07:57.174Z,22.55
2023-06-30T15:10:25.475Z,24.20
2023-06-30T15:12:53.780Z,23.36
2023-06-30T15:15:22.906Z,22.91
2023-06-30T15:17:52.263Z,22.49
2023-06-30T15:20:20.778Z,22.59
2023-06-30T15:22:49.260Z,23.38
2023-06-30T15:25:24.637Z,24.84
2023-06-30T15:27:54.300Z,25.13
2023-06-30T15:30:22.811Z,26.87
2023-06-30T15:32:54.383Z,27.51
2023-06-30T15:35:23.429Z,27.95
2023-06-30T15:37:51.404Z,26.64
2023-06-30T15:40:20.423Z,26.50
2023-06-30T15:42:48.838Z,26.48
2023-06-30T15:45:17.514Z,27.24
2023-06-30T15:47:46.157Z,26.88
2023-06-30T15:50:15.652Z,26.47
2023-06-30T15:52:44.222Z,25.60
2023-06-30T15:55:14.201Z,26.24
2023-06-30T15:57:42.749Z,26.50
2023-06-30T16:00:12.964Z,26.02
2023-06-30T16:02:43.753Z,25.65
2023-06-30T16:05:12.084Z,24.90
2023-06-30T16:07:42.095Z,24.55
2023-06-30T16:10:11.480Z,24.80
2023-06-30T16:12:39.935Z,24.99
2023-06-30T16:15:09.043Z,23.97
2023-06-30T16:17:37.793Z,24.33
2023-06-30T16:20:06.658Z,24.48
2023-06-30T16:22:34.709Z,25.70
2023-06-30T16:25:04.500Z,25.72
2023-06-30T16:27:32.496Z,23.65
2023-06-30T16:30:22.721Z,23.24
2023-06-30T16:32:52.080Z,24.82
2023-06-30T16:35:20.321Z,23.54
2023-06-30T16:37:48.990Z,23.18
2023-06-30T16:40:19.354Z,23.39
2023-06-30T16:42:47.876Z,22.95
2023-06-30T16:45:16.037Z,23.26
2023-06-30T16:47:47.240Z,24.10
2023-06-30T16:50:16.616Z,23.01
2023-06-30T16:52:45.171Z,22.87
2023-06-30T16:55:13.447Z,21.66
2023-06-30T16:57:45.073Z,21.59
2023-06-30T17:00:14.164Z,21.41
2023-06-30T17:02:42.368Z,21.05
2023-06-30T17:05:12.042Z,21.04
2023-06-30T17:07:40.405Z,20.82
2023-06-30T17:10:10.172Z,20.86
2023-06-30T17:12:40.471Z,20.75
2023-06-30T17:15:11.378Z,20.71
2023-06-30T17:17:40.040Z,20.65
2023-06-30T17:20:09.436Z,20.72
2023-06-30T17:22:38.924Z,20.61
2023-06-30T17:25:08.072Z,20.64
2023-06-30T17:27:36.051Z,20.66
2023-06-30T17:30:04.590Z,20.80
2023-06-30T17:32:34.114Z,21.01
2023-06-30T17:35:02.584Z,21.00
2023-06-30T17:37:31.698Z,21.04
2023-06-30T17:39:59.673Z,21.30
2023-06-30T17:42:30.496Z,21.23
2023-06-30T17:44:59.375Z,20.99
2023-06-30T17:47:27.608Z,21.13
2023-06-30T17:49:57.844Z,20.95
2023-06-30T17:52:28.323Z,20.86
2023-06-30T17:54:57.173Z,21.00
2023-06-30T17:57:25.071Z,21.67
2023-06-30T17:59:53.919Z,21.71
2023-06-30T18:02:21.823Z,21.17
2023-06-30T18:04:50.712Z,20.96
2023-06-30T18:07:20.560Z,21.13
2023-06-30T18:09:48.834Z,21.18
2023-06-30T18:12:17.705Z,20.85
2023-06-30T18:14:46.314Z,21.86
2023-06-30T18:17:16.217Z,22.69
2023-06-30T18:19:45.134Z,23.63
2023-06-30T18:22:14.437Z,23.74
2023-06-30T18:24:45.000Z,23.62
2023-06-30T18:27:13.004Z,23.81
2023-06-30T18:29:43.015Z,23.71
2023-06-30T18:32:12.940Z,23.88
2023-06-30T18:34:41.354Z,22.77
2023-06-30T18:37:09.302Z,22.83
2023-06-30T18:39:40.125Z,23.25
2023-06-30T18:42:10.147Z,23.14
2023-06-30T18:44:38.953Z,22.38
2023-06-30T18:47:07.809Z,22.44
2023-06-30T18:49:36.549Z,22.23
2023-06-30T18:52:05.291Z,21.35
2023-06-30T18:54:33.280Z,20.95
2023-06-30T18:57:01.209Z,20.46
2023-06-30T18:59:31.022Z,20.08
2023-06-30T19:01:59.022Z,20.12
2023-06-30T19:04:28.250Z,19.80
2023-06-30T19:06:56.235Z,19.48
2023-06-30T19:09:24.652Z,19.38
2023-06-30T19:11:53.090Z,19.25
2023-06-30T19:14:21.389Z,18.74
2023-06-30T19:16:50.758Z,18.44
2023-06-30T19:19:19.378Z,18.12
2023-06-30T19:21:47.853Z,17.90
2023-06-30T19:24:16.374Z,17.62
2023-06-30T19:26:45.139Z,17.61
2023-06-30T19:29:13.615Z,17.28
2023-06-30T19:31:41.819Z,17.02
2023-06-30T19:34:11.974Z,17.15
2023-06-30T19:36:40.063Z,16.80
2023-06-30T19:39:08.942Z,16.60
2023-06-30T19:41:36.953Z,16.59
2023-06-30T19:44:05.639Z,16.68
2023-06-30T19:46:35.829Z,16.57
2023-06-30T19:49:03.629Z,16.31
2023-06-30T19:51:33.393Z,16.16
2023-06-30T19:54:01.889Z,16.04
2023-06-30T19:56:29.963Z,15.94
2023-06-30T19:58:57.916Z,15.85
2023-06-30T20:01:28.079Z,15.84
2023-06-30T20:03:56.365Z,15.68
2023-06-30T20:06:24.321Z,15.58
2023-06-30T20:08:54.096Z,15.53
2023-06-30T20:11:21.874Z,15.51
2023-06-30T20:13:50.021Z,15.48
2023-06-30T20:16:18.892Z,15.39
2023-06-30T20:18:46.850Z,15.27
2023-06-30T20:21:15.324Z,15.23
2023-06-30T20:23:43.341Z,15.13
2023-06-30T20:26:12.915Z,15.05
2023-06-30T20:28:41.530Z,14.87
2023-06-30T20:31:09.576Z,14.83
2023-06-30T20:33:37.848Z,14.77
2023-06-30T20:36:08.671Z,14.75
2023-06-30T20:38:36.716Z,14.79
2023-06-30T20:41:04.724Z,14.82
2023-06-30T20:43:34.533Z,14.84
2023-06-30T20:46:02.305Z,14.89
2023-06-30T20:48:30.818Z,14.88
2023-06-30T20:50:59.264Z,14.87
2023-06-30T20:53:27.423Z,15.06
2023-06-30T20:55:56.299Z,15.06
2023-06-30T20:58:25.708Z,15.00
2023-06-30T21:00:55.396Z,15.06
2023-06-30T21:03:24.802Z,15.02
2023-06-30T21:05:52.890Z,14.91
2023-06-30T21:08:21.570Z,14.86
2023-06-30T21:10:50.226Z,14.77
2023-06-30T21:13:18.497Z,15.06
2023-06-30T21:15:47.532Z,15.28
2023-06-30T21:18:17.253Z,15.38
2023-06-30T21:20:46.087Z,15.40
2023-06-30T21:23:15.320Z,15.36
2023-06-30T21:25:45.255Z,15.53
2023-06-30T21:28:13.757Z,15.63
2023-06-30T21:30:42.543Z,15.69
2023-06-30T21:33:11.354Z,15.75
2023-06-30T21:35:42.966Z,15.62
2023-06-30T21:38:11.207Z,15.64
2023-06-30T21:40:39.245Z,15.62
2023-06-30T21:43:08.703Z,15.66
2023-06-30T21:45:36.663Z,15.53
2023-06-30T21:48:06.009Z,15.72
2023-06-30T21:50:35.512Z,15.79
2023-06-30T21:53:05.012Z,15.74
2023-06-30T21:55:33.846Z,15.67
2023-06-30T21:58:06.514Z,15.62
2023-06-30T22:00:39.954Z,15.53
2023-06-30T22:03:08.034Z,15.52
2023-06-30T22:05:36.022Z,15.50
2023-06-30T22:08:05.623Z,15.44
2023-06-30T22:10:34.035Z,15.32
2023-06-30T22:13:01.957Z,15.20
2023-06-30T22:15:30.548Z,15.18
2023-06-30T22:17:59.061Z,15.15
2023-06-30T22:20:27.111Z,15.10
2023-06-30T22:22:55.124Z,15.11
2023-06-30T22:25:25.521Z,15.13
2023-06-30T22:27:56.327Z,15.18
2023-06-30T22:30:25.650Z,15.09
2023-06-30T22:32:53.833Z,15.08
2023-06-30T22:35:22.692Z,15.05
2023-06-30T22:37:51.085Z,15.07
2023-06-30T22:40:19.865Z,15.13
2023-06-30T22:42:49.752Z,15.11
2023-06-30T22:45:18.732Z,15.13
2023-06-30T22:47:46.718Z,15.13
2023-06-30T22:50:15.961Z,15.05
2023-06-30T22:52:44.381Z,15.07
2023-06-30T22:55:12.429Z,15.04
2023-06-30T22:57:40.358Z,15.04
2023-06-30T23:00:11.536Z,15.04
2023-06-30T23:02:39.583Z,15.12
2023-06-30T23:05:07.943Z,15.16
2023-06-30T23:07:36.815Z,15.13
2023-06-30T23:10:04.829Z,15.05
2023-06-30T23:12:33.785Z,15.08
2023-06-30T23:15:01.787Z,15.14
2023-06-30T23:17:31.791Z,15.14
2023-06-30T23:20:00.334Z,15.12
2023-06-30T23:22:31.106Z,15.17
2023-06-30T23:25:00.474Z,15.19
2023-06-30T23:27:30.475Z,15.28
2023-06-30T23:29:59.970Z,15.23
2023-06-30T23:32:28.477Z,15.31
2023-06-30T23:34:58.636Z,15.34
2023-06-30T23:37:26.566Z,15.30
2023-06-30T23:39:55.064Z,15.28
2023-06-30T23:42:23.012Z,15.28
2023-06-30T23:44:51.698Z,15.16
2023-06-30T23:47:20.206Z,15.07
2023-06-30T23:49:48.818Z,15.02
2023-06-30T23:52:19.390Z,15.04
2023-06-30T23:54:48.490Z,14.92
2023-06-30T23:57:16.549Z,14.89
2023-06-30T23:59:44.993Z,14.80
